createdAt,value
2022-11-08T00:02:32.060Z,98359.77
2022-11-08T00:05:39.708Z,98371.38
2022-11-08T00:08:47.513Z,98369.42
2022-11-08T00:11:55.426Z,98367.59
2022-11-08T00:14:46.355Z,98371.17
2022-11-08T00:17:35.752Z,98375.86
2022-11-08T00:20:25.224Z,98375.09
2022-11-08T00:23:14.803Z,98379.83
2022-11-08T00:26:04.231Z,98382.14
2022-11-08T00:28:53.699Z,98383.33
2022-11-08T00:31:44.132Z,98390.56
2022-11-08T00:34:33.643Z,98399.90
2022-11-08T00:37:23.454Z,98405.27
2022-11-08T00:40:14.063Z,98401.20
2022-11-08T00:43:03.513Z,98402.71
2022-11-08T00:45:53.002Z,98401.92
2022-11-08T00:48:42.584Z,98393.80
2022-11-08T00:51:32.231Z,98399.79
2022-11-08T00:54:22.258Z,98398.15
2022-11-08T00:57:11.781Z,98400.11
2022-11-08T01:00:01.326Z,98405.29
2022-11-08T01:03:11.074Z,98401.26
2022-11-08T01:06:05.848Z,98395.95
2022-11-08T01:08:55.795Z,98400.52
2022-11-08T01:11:47.265Z,98400.59
2022-11-08T01:14:37.948Z,98392.34
2022-11-08T01:17:27.404Z,98394.80
2022-11-08T01:20:17.311Z,98396.41
2022-11-08T01:23:07.442Z,98392.42
2022-11-08T01:25:57.000Z,98396.13
2022-11-08T01:28:47.113Z,98390.99
2022-11-08T01:31:36.752Z,98402.52
2022-11-08T01:34:26.327Z,98400.17
2022-11-08T01:37:15.968Z,98395.54
2022-11-08T01:40:07.591Z,98394.27
2022-11-08T01:42:57.843Z,98406.31
2022-11-08T01:46:28.066Z,98413.55
2022-11-08T01:49:32.363Z,98416.23
2022-11-08T01:52:31.370Z,98421.08
2022-11-08T01:55:25.251Z,98422.36
2022-11-08T01:58:18.283Z,98420.06
2022-11-08T02:01:08.470Z,98420.92
2022-11-08T02:03:59.748Z,98418.52
2022-11-08T02:06:50.210Z,98421.80
2022-11-08T02:09:42.440Z,98421.71
2022-11-08T02:12:31.919Z,98419.42
2022-11-08T02:15:24.878Z,98416.16
2022-11-08T02:18:16.609Z,98416.27
2022-11-08T02:21:12.063Z,98421.15
2022-11-08T02:24:06.866Z,98415.27
2022-11-08T02:26:57.596Z,98415.89
2022-11-08T02:29:45.863Z,98410.30
2022-11-08T02:32:39.537Z,98408.61
2022-11-08T02:35:28.994Z,98401.75
2022-11-08T02:38:19.634Z,98401.50
2022-11-08T02:41:09.103Z,98398.30
2022-11-08T02:43:58.980Z,98393.88
2022-11-08T02:46:48.493Z,98391.98
2022-11-08T02:49:38.034Z,98391.22
2022-11-08T02:52:27.502Z,98390.73
2022-11-08T02:55:17.207Z,98392.85
2022-11-08T02:58:06.856Z,98390.56
2022-11-08T03:00:56.406Z,98389.94
2022-11-08T03:03:46.052Z,98389.45
2022-11-08T03:06:35.542Z,98391.21
2022-11-08T03:09:26.502Z,98385.10
2022-11-08T03:12:16.040Z,98374.27
2022-11-08T03:15:08.001Z,98370.56
2022-11-08T03:17:59.275Z,98371.95
2022-11-08T03:20:48.685Z,98369.62
2022-11-08T03:23:38.316Z,98371.27
2022-11-08T03:26:27.736Z,98367.92
2022-11-08T03:29:17.371Z,98365.02
2022-11-08T03:32:06.938Z,98362.55
2022-11-08T03:34:59.065Z,98354.30
2022-11-08T03:37:52.101Z,98352.90
2022-11-08T03:40:41.432Z,98347.73
2022-11-08T03:43:31.031Z,98336.29
2022-11-08T03:46:20.495Z,98327.17
2022-11-08T03:49:10.451Z,98326.71
2022-11-08T03:51:59.959Z,98323.91
2022-11-08T03:54:49.552Z,98322.83
2022-11-08T03:57:39.148Z,98319.45
2022-11-08T04:00:29.892Z,98312.52
2022-11-08T04:03:19.288Z,98301.48
2022-11-08T04:06:09.416Z,98296.50
2022-11-08T04:08:58.877Z,98293.27
2022-11-08T04:12:06.628Z,98289.70
2022-11-08T04:15:14.424Z,98291.23
2022-11-08T04:18:22.368Z,98282.52
2022-11-08T04:21:21.137Z,98274.76
2022-11-08T04:24:10.551Z,98267.36
2022-11-08T04:27:00.991Z,98255.27
2022-11-08T04:29:49.303Z,98253.65
2022-11-08T04:32:38.710Z,98247.17
2022-11-08T04:35:28.105Z,98241.19
2022-11-08T04:38:18.272Z,98241.48
2022-11-08T04:41:10.684Z,98233.52
2022-11-08T04:43:59.686Z,98227.60
2022-11-08T04:46:49.156Z,98231.58
2022-11-08T04:49:38.563Z,98232.65
2022-11-08T04:52:28.073Z,98225.00
2022-11-08T04:55:17.680Z,98220.38
2022-11-08T04:58:07.087Z,98220.11
2022-11-08T05:01:00.995Z,98227.38
2022-11-08T05:03:51.924Z,98226.01
2022-11-08T05:06:41.021Z,98222.09
2022-11-08T05:09:30.510Z,98216.24
2022-11-08T05:12:19.922Z,98216.05
2022-11-08T05:15:11.543Z,98214.07
2022-11-08T05:18:00.893Z,98220.05
2022-11-08T05:21:13.847Z,98206.20
2022-11-08T05:24:05.406Z,98153.55
2022-11-08T05:26:54.773Z,98124.46
2022-11-08T05:29:44.239Z,98144.75
2022-11-08T05:32:33.627Z,98160.95
2022-11-08T05:35:23.262Z,98166.10
2022-11-08T05:38:12.845Z,98172.14
2022-11-08T05:41:04.325Z,98167.13
2022-11-08T05:43:55.164Z,98163.14
2022-11-08T05:46:44.635Z,98160.98
2022-11-08T05:49:34.152Z,98164.20
2022-11-08T05:52:23.774Z,98160.96
2022-11-08T05:55:13.278Z,98153.97
2022-11-08T05:58:05.450Z,98145.04
2022-11-08T06:01:01.376Z,98141.77
2022-11-08T06:03:50.495Z,98141.49
2022-11-08T06:06:40.123Z,98138.41
2022-11-08T06:09:29.479Z,98126.92
2022-11-08T06:12:19.538Z,98118.86
2022-11-08T06:15:10.189Z,98117.42
2022-11-08T06:18:03.743Z,98118.34
2022-11-08T06:20:52.681Z,98110.99
2022-11-08T06:23:42.686Z,98115.27
2022-11-08T06:26:31.703Z,98113.17
2022-11-08T06:29:21.116Z,98115.38
2022-11-08T06:32:10.622Z,98120.51
2022-11-08T06:35:00.043Z,98129.17
2022-11-08T06:37:49.515Z,98131.27
2022-11-08T06:40:39.364Z,98129.02
2022-11-08T06:43:29.220Z,98133.02
2022-11-08T06:46:18.880Z,98132.86
2022-11-08T06:49:08.309Z,98138.66
2022-11-08T06:51:57.872Z,98140.73
2022-11-08T06:54:47.231Z,98145.67
2022-11-08T06:57:36.756Z,98139.31
2022-11-08T07:00:26.867Z,98140.19
2022-11-08T07:03:17.945Z,98131.45
2022-11-08T07:06:08.891Z,98123.22
2022-11-08T07:08:58.571Z,98118.59
2022-11-08T07:11:47.980Z,98108.13
2022-11-08T07:14:39.404Z,98106.25
2022-11-08T07:17:29.775Z,98101.62
2022-11-08T07:20:23.675Z,98109.69
2022-11-08T07:23:13.111Z,98109.44
2022-11-08T07:26:03.864Z,98108.60
2022-11-08T07:28:53.158Z,98108.29
2022-11-08T07:31:45.299Z,98111.56
2022-11-08T07:34:35.759Z,98111.69
2022-11-08T07:37:26.906Z,98109.66
2022-11-08T07:40:17.024Z,98113.59
2022-11-08T07:43:13.671Z,98108.20
2022-11-08T07:46:05.004Z,98101.71
2022-11-08T07:48:54.458Z,98103.92
2022-11-08T07:51:44.030Z,98106.90
2022-11-08T07:54:33.586Z,98105.47
2022-11-08T07:57:25.238Z,98109.56
2022-11-08T08:00:16.380Z,98110.54
2022-11-08T08:03:08.217Z,98110.83
2022-11-08T08:06:02.948Z,98115.01
2022-11-08T08:08:52.503Z,98121.79
2022-11-08T08:11:42.942Z,98131.55
2022-11-08T08:14:32.510Z,98132.08
2022-11-08T08:17:22.380Z,98128.69
2022-11-08T08:20:17.089Z,98130.88
2022-11-08T08:23:17.569Z,98139.09
2022-11-08T08:26:24.546Z,98141.74
2022-11-08T08:29:17.895Z,98142.71
2022-11-08T08:32:11.084Z,98148.92
2022-11-08T08:35:02.402Z,98151.83
2022-11-08T08:37:57.120Z,98155.40
2022-11-08T08:41:00.372Z,98153.64
2022-11-08T08:43:51.297Z,98154.41
2022-11-08T08:46:40.377Z,98148.26
2022-11-08T08:49:38.049Z,98144.25
2022-11-08T08:53:13.952Z,98142.91
2022-11-08T08:56:15.295Z,98146.98
2022-11-08T09:02:26.087Z,98147.04
2022-11-08T09:05:21.567Z,98145.92
2022-11-08T09:08:23.385Z,98149.39
2022-11-08T09:11:47.713Z,98150.42
2022-11-08T09:14:43.146Z,98153.20
2022-11-08T09:18:02.969Z,98153.83
2022-11-08T09:21:00.900Z,98153.15
2022-11-08T09:23:50.291Z,98154.39
2022-11-08T09:26:39.793Z,98160.63
2022-11-08T09:29:29.265Z,98160.39
2022-11-08T09:32:24.772Z,98162.79
2022-11-08T09:35:23.679Z,98165.58
2022-11-08T09:38:13.026Z,98168.17
2022-11-08T09:41:25.688Z,98163.35
2022-11-08T09:44:26.795Z,98163.40
2022-11-08T09:47:24.002Z,98161.23
2022-11-08T09:50:20.199Z,98160.13
2022-11-08T09:53:18.193Z,98167.48
2022-11-08T09:56:16.658Z,98167.78
2022-11-08T09:59:20.045Z,98164.63
2022-11-08T10:02:18.047Z,98167.85
2022-11-08T10:05:15.244Z,98163.13
2022-11-08T10:08:11.205Z,98177.39
2022-11-08T10:11:18.613Z,98172.42
2022-11-08T10:14:25.065Z,98172.06
2022-11-08T10:17:37.795Z,98173.44
2022-11-08T10:20:39.044Z,98162.80
2022-11-08T10:23:39.657Z,98159.52
2022-11-08T10:26:35.417Z,98165.30
2022-11-08T10:29:31.701Z,98165.25
2022-11-08T10:32:23.055Z,98166.88
2022-11-08T10:35:24.466Z,98166.30
2022-11-08T10:38:25.489Z,98170.34
2022-11-08T10:41:21.367Z,98172.33
2022-11-08T10:44:15.366Z,98169.58
2022-11-08T10:47:07.594Z,98164.23
2022-11-08T10:50:02.483Z,98164.55
2022-11-08T10:52:58.280Z,98173.16
2022-11-08T10:55:55.884Z,98184.17
2022-11-08T10:58:44.961Z,98181.56
2022-11-08T11:01:34.524Z,98186.77
2022-11-08T11:04:28.686Z,98187.59
2022-11-08T11:07:31.034Z,98185.14
2022-11-08T11:10:25.546Z,98177.80
2022-11-08T11:13:19.224Z,98174.27
2022-11-08T11:16:14.348Z,98177.30
2022-11-08T11:19:06.395Z,98176.33
2022-11-08T11:22:01.689Z,98173.55
2022-11-08T11:24:54.231Z,98180.55
2022-11-08T11:27:44.121Z,98182.73
2022-11-08T11:30:34.838Z,98181.36
2022-11-08T11:33:25.726Z,98186.38
2022-11-08T11:36:19.940Z,98181.19
2022-11-08T11:39:16.219Z,98177.00
2022-11-08T11:42:39.212Z,98170.84
2022-11-08T11:45:28.840Z,98136.27
2022-11-08T11:48:21.854Z,98130.89
2022-11-08T11:51:11.628Z,98124.41
2022-11-08T11:54:05.038Z,98121.91
2022-11-08T11:57:01.201Z,98122.93
2022-11-08T12:00:01.544Z,98108.85
2022-11-08T12:03:22.132Z,98103.95
2022-11-08T12:06:28.389Z,98108.50
2022-11-08T12:09:33.379Z,98106.20
2022-11-08T12:12:37.855Z,98105.59
2022-11-08T12:15:34.778Z,98106.20
2022-11-08T12:18:43.882Z,98104.11
2022-11-08T12:21:40.118Z,98103.56
2022-11-08T12:24:42.630Z,98094.84
2022-11-08T12:27:45.662Z,98090.52
2022-11-08T12:30:47.155Z,98093.98
2022-11-08T12:33:46.490Z,98092.06
2022-11-08T12:36:45.355Z,98088.09
2022-11-08T12:39:40.346Z,98079.30
2022-11-08T12:42:47.689Z,98073.89
2022-11-08T12:45:51.513Z,98079.27
2022-11-08T12:49:01.231Z,98080.55
2022-11-08T12:52:08.563Z,98074.70
2022-11-08T12:55:03.043Z,98083.77
2022-11-08T12:58:00.307Z,98084.83
2022-11-08T13:00:52.949Z,98085.64
2022-11-08T13:04:18.508Z,98086.64
2022-11-08T13:07:18.043Z,98088.79
2022-11-08T13:10:16.661Z,98100.56
2022-11-08T13:13:18.920Z,98093.79
2022-11-08T13:16:11.302Z,98091.58
2022-11-08T13:19:03.850Z,98088.35
2022-11-08T13:21:53.739Z,98095.57
2022-11-08T13:24:45.086Z,98090.09
2022-11-08T13:27:37.087Z,98090.71
2022-11-08T13:30:43.446Z,98087.18
2022-11-08T13:33:34.200Z,98088.27
2022-11-08T13:36:33.354Z,98087.50
2022-11-08T13:39:45.841Z,98097.33
2022-11-08T13:42:58.794Z,98103.36
2022-11-08T13:45:49.318Z,98099.18
2022-11-08T13:49:05.502Z,98104.30
2022-11-08T13:52:26.160Z,98115.54
2022-11-08T13:55:46.295Z,98114.88
2022-11-08T13:58:38.327Z,98115.52
2022-11-08T14:01:59.716Z,98116.55
2022-11-08T14:04:49.359Z,98117.79
2022-11-08T14:07:46.098Z,98119.11
2022-11-08T14:10:47.280Z,98121.98
2022-11-08T14:13:50.111Z,98121.91
2022-11-08T14:16:49.364Z,98120.98
2022-11-08T14:19:40.667Z,98113.95
2022-11-08T14:22:31.787Z,98120.13
2022-11-08T14:25:30.533Z,98119.30
2022-11-08T14:28:27.440Z,98121.83
2022-11-08T14:31:28.682Z,98128.32
2022-11-08T14:34:37.658Z,98133.77
2022-11-08T14:37:28.232Z,98135.40
2022-11-08T14:40:20.718Z,98135.33
2022-11-08T14:43:12.880Z,98136.05
2022-11-08T14:46:12.735Z,98134.95
2022-11-08T14:49:11.236Z,98141.83
2022-11-08T14:52:15.001Z,98145.41
2022-11-08T14:55:07.786Z,98150.20
2022-11-08T14:57:57.181Z,98157.45
2022-11-08T15:00:49.150Z,98155.09
2022-11-08T15:03:44.391Z,98156.90
2022-11-08T15:06:36.789Z,98161.80
2022-11-08T15:09:30.673Z,98169.11
2022-11-08T15:12:23.191Z,98175.33
2022-11-08T15:15:26.675Z,98174.14
2022-11-08T15:18:17.833Z,98180.36
2022-11-08T15:21:21.997Z,98184.29
2022-11-08T15:24:14.502Z,98185.11
2022-11-08T15:27:18.049Z,98192.98
2022-11-08T15:30:15.362Z,98199.02
2022-11-08T15:33:22.715Z,98199.73
2022-11-08T15:36:14.168Z,98198.94
2022-11-08T15:39:06.504Z,98197.56
2022-11-08T15:42:04.260Z,98212.75
2022-11-08T15:45:04.397Z,98212.12
2022-11-08T15:48:00.691Z,98209.90
2022-11-08T15:50:50.679Z,98212.66
2022-11-08T15:53:41.456Z,98218.84
2022-11-08T15:56:31.064Z,98223.61
2022-11-08T15:59:23.395Z,98227.92
2022-11-08T16:02:14.450Z,98233.14
2022-11-08T16:05:16.075Z,98238.86
2022-11-08T16:08:07.007Z,98238.34
2022-11-08T16:11:00.827Z,98240.58
2022-11-08T16:13:51.572Z,98244.29
2022-11-08T16:16:44.276Z,98249.75
2022-11-08T16:19:33.913Z,98256.89
2022-11-08T16:22:23.607Z,98262.52
2022-11-08T16:25:13.445Z,98257.91
2022-11-08T16:28:08.931Z,98269.12
2022-11-08T16:30:58.696Z,98271.98
2022-11-08T16:33:49.297Z,98275.86
2022-11-08T16:36:38.576Z,98271.93
2022-11-08T16:39:28.733Z,98273.17
2022-11-08T16:42:18.411Z,98280.36
2022-11-08T16:45:09.591Z,98282.55
2022-11-08T16:47:58.965Z,98287.58
2022-11-08T16:50:48.705Z,98288.20
2022-11-08T16:53:38.006Z,98293.10
2022-11-08T16:56:27.366Z,98295.73
2022-11-08T16:59:16.790Z,98297.13
2022-11-08T17:02:14.687Z,98291.77
2022-11-08T17:05:12.065Z,98297.27
2022-11-08T17:08:01.553Z,98300.56
2022-11-08T17:10:50.946Z,98308.94
2022-11-08T17:13:40.845Z,98314.90
2022-11-08T17:16:30.530Z,98315.14
2022-11-08T17:19:19.946Z,98317.54
2022-11-08T17:22:09.397Z,98327.05
2022-11-08T17:24:58.795Z,98331.12
2022-11-08T17:27:49.370Z,98331.38
2022-11-08T17:30:43.490Z,98338.26
2022-11-08T17:33:32.962Z,98339.33
2022-11-08T17:36:22.581Z,98342.28
2022-11-08T17:39:13.479Z,98349.80
2022-11-08T17:42:02.866Z,98354.29
2022-11-08T17:44:53.960Z,98352.71
2022-11-08T17:47:43.455Z,98354.15
2022-11-08T17:50:33.129Z,98357.55
2022-11-08T17:53:23.106Z,98354.08
2022-11-08T17:56:12.651Z,98361.57
2022-11-08T17:59:03.512Z,98357.95
2022-11-08T18:01:52.658Z,98356.85
2022-11-08T18:04:42.157Z,98361.65
2022-11-08T18:07:31.483Z,98364.12
2022-11-08T18:10:20.975Z,98363.35
2022-11-08T18:13:11.256Z,98369.73
2022-11-08T18:16:13.295Z,98369.70
2022-11-08T18:19:02.466Z,98374.14
2022-11-08T18:21:51.867Z,98372.04
2022-11-08T18:24:44.805Z,98383.68
2022-11-08T18:27:38.297Z,98398.79
2022-11-08T18:30:27.905Z,98402.77
2022-11-08T18:33:18.192Z,98417.65
2022-11-08T18:36:12.981Z,98426.62
2022-11-08T18:39:03.319Z,98435.22
2022-11-08T18:41:52.942Z,98434.65
2022-11-08T18:44:42.609Z,98442.09
2022-11-08T18:47:32.844Z,98446.78
2022-11-08T18:50:22.377Z,98448.83
2022-11-08T18:53:11.837Z,98454.81
2022-11-08T18:56:01.455Z,98463.50
2022-11-08T18:58:52.156Z,98469.11
2022-11-08T19:01:41.787Z,98477.00
2022-11-08T19:04:31.412Z,98484.14
2022-11-08T19:07:21.393Z,98493.89
2022-11-08T19:10:11.453Z,98496.73
2022-11-08T19:13:01.147Z,98502.27
2022-11-08T19:15:57.968Z,98503.04
2022-11-08T19:18:49.117Z,98513.86
2022-11-08T19:21:41.236Z,98515.09
2022-11-08T19:24:30.412Z,98513.90
2022-11-08T19:27:20.843Z,98519.08
2022-11-08T19:30:10.017Z,98531.95
2022-11-08T19:33:01.165Z,98542.16
2022-11-08T19:35:52.115Z,98548.50
2022-11-08T19:38:42.520Z,98560.52
2022-11-08T19:41:32.033Z,98567.01
2022-11-08T19:44:21.607Z,98577.25
2022-11-08T19:47:11.180Z,98580.27
2022-11-08T19:50:00.820Z,98588.53
2022-11-08T19:52:51.502Z,98589.56
2022-11-08T19:55:39.931Z,98594.98
2022-11-08T19:58:30.615Z,98602.64
2022-11-08T20:01:22.731Z,98609.63
2022-11-08T20:04:13.944Z,98612.95
2022-11-08T20:07:03.456Z,98618.34
2022-11-08T20:09:54.277Z,98624.55
2022-11-08T20:12:43.711Z,98634.63
2022-11-08T20:15:33.102Z,98641.86
2022-11-08T20:18:22.603Z,98644.41
2022-11-08T20:21:15.419Z,98652.15
2022-11-08T20:24:05.833Z,98656.91
2022-11-08T20:26:54.847Z,98666.13
2022-11-08T20:29:44.347Z,98669.53
2022-11-08T20:32:33.756Z,98678.86
2022-11-08T20:35:23.734Z,98678.98
2022-11-08T20:38:13.164Z,98688.73
2022-11-08T20:41:03.687Z,98694.48
2022-11-08T20:43:52.016Z,98696.91
2022-11-08T20:46:41.588Z,98702.61
2022-11-08T20:49:31.082Z,98709.22
2022-11-08T20:52:22.879Z,98716.00
2022-11-08T20:55:12.289Z,98719.98
2022-11-08T20:58:01.983Z,98721.71
2022-11-08T21:00:58.430Z,98732.55
2022-11-08T21:03:48.843Z,98738.47
2022-11-08T21:06:40.135Z,98736.83
2022-11-08T21:09:40.466Z,98742.42
2022-11-08T21:12:41.329Z,98755.29
2022-11-08T21:15:30.819Z,98760.80
2022-11-08T21:18:20.881Z,98763.50
2022-11-08T21:21:11.101Z,98768.55
2022-11-08T21:24:00.266Z,98768.26
2022-11-08T21:26:49.864Z,98777.84
2022-11-08T21:29:39.791Z,98790.34
2022-11-08T21:32:29.291Z,98791.90
2022-11-08T21:35:18.841Z,98797.70
2022-11-08T21:38:08.682Z,98797.48
2022-11-08T21:41:04.907Z,98804.95
2022-11-08T21:43:53.947Z,98806.86
2022-11-08T21:46:43.590Z,98811.99
2022-11-08T21:49:32.962Z,98815.92
2022-11-08T21:52:22.593Z,98817.81
2022-11-08T21:55:12.762Z,98824.60
2022-11-08T21:58:03.324Z,98823.06
2022-11-08T22:00:52.768Z,98831.23
2022-11-08T22:03:42.339Z,98837.14
2022-11-08T22:06:31.911Z,98841.33
2022-11-08T22:09:21.486Z,98848.59
2022-11-08T22:12:15.919Z,98849.98
2022-11-08T22:15:15.803Z,98850.45
2022-11-08T22:18:36.848Z,98851.42
2022-11-08T22:21:39.624Z,98858.44
2022-11-08T22:24:30.689Z,98868.14
2022-11-08T22:27:21.707Z,98866.16
2022-11-08T22:30:16.906Z,98867.39
2022-11-08T22:33:09.415Z,98879.34
2022-11-08T22:35:59.380Z,98882.78
2022-11-08T22:38:49.363Z,98885.17
2022-11-08T22:41:38.950Z,98890.81
2022-11-08T22:44:30.859Z,98893.55
2022-11-08T22:47:23.806Z,98897.98
2022-11-08T22:50:16.693Z,98899.54
2022-11-08T22:53:07.550Z,98899.67
2022-11-08T22:55:57.371Z,98908.83
2022-11-08T22:58:49.701Z,98912.95
2022-11-08T23:01:39.428Z,98915.56
2022-11-08T23:04:35.035Z,98916.02
2022-11-08T23:07:54.158Z,98925.23
2022-11-08T23:11:09.108Z,98930.66
2022-11-08T23:14:19.647Z,98930.73
2022-11-08T23:17:08.409Z,98937.42
2022-11-08T23:20:23.552Z,98936.66
2022-11-08T23:23:31.571Z,98934.69
2022-11-08T23:26:45.594Z,98943.19
2022-11-08T23:29:53.752Z,98945.20
2022-11-08T23:32:51.045Z,98955.16
2022-11-08T23:36:03.385Z,98960.35
2022-11-08T23:38:53.826Z,98966.41
2022-11-08T23:42:02.323Z,98964.91
2022-11-08T23:44:52.537Z,98963.14
2022-11-08T23:47:42.709Z,98967.57
2022-11-08T23:50:40.918Z,98968.17
2022-11-08T23:53:43.714Z,98963.60
2022-11-08T23:56:34.167Z,98975.44
2022-11-08T23:59:23.740Z,98979.77
